sensor_id;sensor_type;location;lat;lon;timestamp;P1;durP1;ratioP1;P2;durP2;ratioP2
49514;SDS011;35415;47.870;16.058;2023-08-06T00:01:22;0.10;;;0.10;;
49514;SDS011;35415;47.870;16.058;2023-08-06T00:03:51;0.20;;;0.20;;
49514;SDS011;35415;47.870;16.058;2023-08-06T00:06:18;0.10;;;0.10;;
49514;SDS011;35415;47.870;16.058;2023-08-06T00:08:48;0.17;;;0.17;;
49514;SDS011;35415;47.870;16.058;2023-08-06T00:11:15;0.63;;;0.20;;
49514;SDS011;35415;47.870;16.058;2023-08-06T00:13:43;0.10;;;0.10;;
49514;SDS011;35415;47.870;16.058;2023-08-06T00:16:10;0.13;;;0.13;;
49514;SDS011;35415;47.870;16.058;2023-08-06T00:18:38;0.32;;;0.20;;
49514;SDS011;35415;47.870;16.058;2023-08-06T00:21:06;0.20;;;0.20;;
49514;SDS011;35415;47.870;16.058;2023-08-06T00:23:33;0.10;;;0.10;;
49514;SDS011;35415;47.870;16.058;2023-08-06T00:26:00;0.30;;;0.30;;
49514;SDS011;35415;47.870;16.058;2023-08-06T00:28:27;0.63;;;0.20;;
49514;SDS011;35415;47.870;16.058;2023-08-06T00:30:55;0.20;;;0.20;;
49514;SDS011;35415;47.870;16.058;2023-08-06T00:33:23;0.13;;;0.13;;
49514;SDS011;35415;47.870;16.058;2023-08-06T00:35:50;0.10;;;0.10;;
49514;SDS011;35415;47.870;16.058;2023-08-06T00:38:17;1.65;;;0.20;;
49514;SDS011;35415;47.870;16.058;2023-08-06T00:40:44;0.17;;;0.17;;
49514;SDS011;35415;47.870;16.058;2023-08-06T00:43:11;0.28;;;0.28;;
49514;SDS011;35415;47.870;16.058;2023-08-06T00:45:38;0.10;;;0.10;;
49514;SDS011;35415;47.870;16.058;2023-08-06T00:48:07;0.10;;;0.10;;
49514;SDS011;35415;47.870;16.058;2023-08-06T00:50:34;0.45;;;0.20;;
49514;SDS011;35415;47.870;16.058;2023-08-06T00:53:02;0.10;;;0.10;;
49514;SDS011;35415;47.870;16.058;2023-08-06T00:55:29;0.10;;;0.10;;
49514;SDS011;35415;47.870;16.058;2023-08-06T00:57:56;0.32;;;0.20;;
49514;SDS011;35415;47.870;16.058;2023-08-06T01:00:24;0.10;;;0.10;;
49514;SDS011;35415;47.870;16.058;2023-08-06T01:02:52;0.17;;;0.17;;
49514;SDS011;35415;47.870;16.058;2023-08-06T01:05:21;0.20;;;0.20;;
49514;SDS011;35415;47.870;16.058;2023-08-06T01:07:51;0.10;;;0.10;;
49514;SDS011;35415;47.870;16.058;2023-08-06T01:10:37;0.10;;;0.10;;
49514;SDS011;35415;47.870;16.058;2023-08-06T01:13:15;0.20;;;0.20;;
49514;SDS011;35415;47.870;16.058;2023-08-06T01:15:46;0.20;;;0.20;;
49514;SDS011;35415;47.870;16.058;2023-08-06T01:18:19;0.88;;;0.15;;
49514;SDS011;35415;47.870;16.058;2023-08-06T01:20:48;0.20;;;0.20;;
49514;SDS011;35415;47.870;16.058;2023-08-06T01:23:15;0.15;;;0.15;;
49514;SDS011;35415;47.870;16.058;2023-08-06T01:25:44;0.20;;;0.20;;
49514;SDS011;35415;47.870;16.058;2023-08-06T01:28:18;1.85;;;0.30;;
49514;SDS011;35415;47.870;16.058;2023-08-06T01:30:52;0.25;;;0.25;;
49514;SDS011;35415;47.870;16.058;2023-08-06T01:33:21;0.63;;;0.20;;
49514;SDS011;35415;47.870;16.058;2023-08-06T01:35:50;0.20;;;0.17;;
49514;SDS011;35415;47.870;16.058;2023-08-06T01:38:20;0.10;;;0.10;;
49514;SDS011;35415;47.870;16.058;2023-08-06T01:40:48;0.10;;;0.10;;
49514;SDS011;35415;47.870;16.058;2023-08-06T01:43:15;0.20;;;0.20;;
49514;SDS011;35415;47.870;16.058;2023-08-06T01:45:42;0.20;;;0.20;;
49514;SDS011;35415;47.870;16.058;2023-08-06T01:48:09;0.57;;;0.30;;
49514;SDS011;35415;47.870;16.058;2023-08-06T01:50:36;0.30;;;0.30;;
49514;SDS011;35415;47.870;16.058;2023-08-06T01:53:05;0.13;;;0.13;;
49514;SDS011;35415;47.870;16.058;2023-08-06T01:55:32;0.20;;;0.20;;
49514;SDS011;35415;47.870;16.058;2023-08-06T01:57:59;0.30;;;0.20;;
49514;SDS011;35415;47.870;16.058;2023-08-06T02:00:26;0.22;;;0.10;;
49514;SDS011;35415;47.870;16.058;2023-08-06T02:02:54;0.13;;;0.13;;
49514;SDS011;35415;47.870;16.058;2023-08-06T02:05:21;0.10;;;0.10;;
49514;SDS011;35415;47.870;16.058;2023-08-06T02:07:48;0.17;;;0.17;;
49514;SDS011;35415;47.870;16.058;2023-08-06T02:10:17;0.10;;;0.10;;
49514;SDS011;35415;47.870;16.058;2023-08-06T02:12:44;0.20;;;0.20;;
49514;SDS011;35415;47.870;16.058;2023-08-06T02:15:11;0.25;;;0.25;;
49514;SDS011;35415;47.870;16.058;2023-08-06T02:17:39;0.20;;;0.20;;
49514;SDS011;35415;47.870;16.058;2023-08-06T02:20:06;0.10;;;0.10;;
49514;SDS011;35415;47.870;16.058;2023-08-06T02:22:34;0.10;;;0.10;;
49514;SDS011;35415;47.870;16.058;2023-08-06T02:25:01;0.13;;;0.10;;
49514;SDS011;35415;47.870;16.058;2023-08-06T02:27:30;0.20;;;0.20;;
49514;SDS011;35415;47.870;16.058;2023-08-06T02:29:57;0.25;;;0.20;;
49514;SDS011;35415;47.870;16.058;2023-08-06T02:32:24;0.28;;;0.28;;
49514;SDS011;35415;47.870;16.058;2023-08-06T02:34:51;0.25;;;0.25;;
49514;SDS011;35415;47.870;16.058;2023-08-06T02:37:18;0.20;;;0.20;;
49514;SDS011;35415;47.870;16.058;2023-08-06T02:39:45;0.30;;;0.30;;
49514;SDS011;35415;47.870;16.058;2023-08-06T02:42:12;0.32;;;0.32;;
49514;SDS011;35415;47.870;16.058;2023-08-06T02:44:41;0.20;;;0.20;;
49514;SDS011;35415;47.870;16.058;2023-08-06T02:47:08;0.55;;;0.28;;
49514;SDS011;35415;47.870;16.058;2023-08-06T02:49:35;0.30;;;0.30;;
49514;SDS011;35415;47.870;16.058;2023-08-06T02:52:02;0.43;;;0.30;;
49514;SDS011;35415;47.870;16.058;2023-08-06T02:54:30;0.40;;;0.40;;
49514;SDS011;35415;47.870;16.058;2023-08-06T02:56:57;0.20;;;0.20;;
49514;SDS011;35415;47.870;16.058;2023-08-06T02:59:24;0.57;;;0.30;;
49514;SDS011;35415;47.870;16.058;2023-08-06T03:01:53;0.30;;;0.30;;
49514;SDS011;35415;47.870;16.058;2023-08-06T03:04:20;2.17;;;0.40;;
49514;SDS011;35415;47.870;16.058;2023-08-06T03:06:49;0.43;;;0.43;;
49514;SDS011;35415;47.870;16.058;2023-08-06T03:09:16;2.60;;;0.30;;
49514;SDS011;35415;47.870;16.058;2023-08-06T03:11:43;0.40;;;0.32;;
49514;SDS011;35415;47.870;16.058;2023-08-06T03:14:10;1.08;;;0.55;;
49514;SDS011;35415;47.870;16.058;2023-08-06T03:16:37;0.30;;;0.30;;
49514;SDS011;35415;47.870;16.058;2023-08-06T03:19:06;0.32;;;0.32;;
49514;SDS011;35415;47.870;16.058;2023-08-06T03:21:33;0.40;;;0.40;;
49514;SDS011;35415;47.870;16.058;2023-08-06T03:24:00;0.40;;;0.40;;
49514;SDS011;35415;47.870;16.058;2023-08-06T03:26:27;0.32;;;0.32;;
49514;SDS011;35415;47.870;16.058;2023-08-06T03:28:55;0.50;;;0.40;;
49514;SDS011;35415;47.870;16.058;2023-08-06T03:31:22;0.52;;;0.50;;
49514;SDS011;35415;47.870;16.058;2023-08-06T03:33:50;0.40;;;0.40;;
49514;SDS011;35415;47.870;16.058;2023-08-06T03:36:19;0.47;;;0.47;;
49514;SDS011;35415;47.870;16.058;2023-08-06T03:38:49;0.75;;;0.40;;
49514;SDS011;35415;47.870;16.058;2023-08-06T03:41:16;0.30;;;0.30;;
49514;SDS011;35415;47.870;16.058;2023-08-06T03:43:48;0.43;;;0.40;;
49514;SDS011;35415;47.870;16.058;2023-08-06T03:46:15;0.40;;;0.40;;
49514;SDS011;35415;47.870;16.058;2023-08-06T03:48:42;1.67;;;0.70;;
49514;SDS011;35415;47.870;16.058;2023-08-06T03:51:10;0.65;;;0.50;;
49514;SDS011;35415;47.870;16.058;2023-08-06T03:53:39;1.00;;;0.80;;
49514;SDS011;35415;47.870;16.058;2023-08-06T03:56:06;1.38;;;0.73;;
49514;SDS011;35415;47.870;16.058;2023-08-06T03:58:33;0.50;;;0.50;;
49514;SDS011;35415;47.870;16.058;2023-08-06T04:01:00;0.55;;;0.50;;
49514;SDS011;35415;47.870;16.058;2023-08-06T04:03:28;0.47;;;0.47;;
49514;SDS011;35415;47.870;16.058;2023-08-06T04:05:55;0.70;;;0.60;;
49514;SDS011;35415;47.870;16.058;2023-08-06T04:08:22;0.52;;;0.52;;
49514;SDS011;35415;47.870;16.058;2023-08-06T04:10:52;0.90;;;0.60;;
49514;SDS011;35415;47.870;16.058;2023-08-06T04:13:19;0.70;;;0.70;;
49514;SDS011;35415;47.870;16.058;2023-08-06T04:15:46;0.50;;;0.50;;
49514;SDS011;35415;47.870;16.058;2023-08-06T04:18:13;0.50;;;0.50;;
49514;SDS011;35415;47.870;16.058;2023-08-06T04:20:43;0.88;;;0.60;;
49514;SDS011;35415;47.870;16.058;2023-08-06T04:23:11;0.60;;;0.60;;
49514;SDS011;35415;47.870;16.058;2023-08-06T04:25:39;1.05;;;0.60;;
49514;SDS011;35415;47.870;16.058;2023-08-06T04:28:07;0.65;;;0.65;;
49514;SDS011;35415;47.870;16.058;2023-08-06T04:30:34;0.60;;;0.60;;
49514;SDS011;35415;47.870;16.058;2023-08-06T04:33:03;1.23;;;0.73;;
49514;SDS011;35415;47.870;16.058;2023-08-06T04:35:30;0.57;;;0.57;;
49514;SDS011;35415;47.870;16.058;2023-08-06T04:37:57;0.60;;;0.60;;
49514;SDS011;35415;47.870;16.058;2023-08-06T04:40:24;0.57;;;0.57;;
49514;SDS011;35415;47.870;16.058;2023-08-06T04:42:52;1.20;;;0.70;;
49514;SDS011;35415;47.870;16.058;2023-08-06T04:45:21;1.25;;;1.08;;
49514;SDS011;35415;47.870;16.058;2023-08-06T04:47:49;0.80;;;0.80;;
49514;SDS011;35415;47.870;16.058;2023-08-06T04:50:16;0.80;;;0.80;;
49514;SDS011;35415;47.870;16.058;2023-08-06T04:52:43;0.60;;;0.57;;
49514;SDS011;35415;47.870;16.058;2023-08-06T04:55:10;0.93;;;0.82;;
49514;SDS011;35415;47.870;16.058;2023-08-06T04:57:37;0.75;;;0.75;;
49514;SDS011;35415;47.870;16.058;2023-08-06T05:00:05;0.70;;;0.70;;
49514;SDS011;35415;47.870;16.058;2023-08-06T05:02:35;0.60;;;0.60;;
49514;SDS011;35415;47.870;16.058;2023-08-06T05:05:04;1.75;;;0.60;;
49514;SDS011;35415;47.870;16.058;2023-08-06T05:07:31;1.17;;;0.70;;
49514;SDS011;35415;47.870;16.058;2023-08-06T05:09:59;1.23;;;1.00;;
49514;SDS011;35415;47.870;16.058;2023-08-06T05:12:26;0.60;;;0.60;;
49514;SDS011;35415;47.870;16.058;2023-08-06T05:14:53;1.02;;;0.55;;
49514;SDS011;35415;47.870;16.058;2023-08-06T05:17:20;1.95;;;0.70;;
49514;SDS011;35415;47.870;16.058;2023-08-06T05:19:49;0.70;;;0.70;;
49514;SDS011;35415;47.870;16.058;2023-08-06T05:22:17;0.60;;;0.60;;
49514;SDS011;35415;47.870;16.058;2023-08-06T05:24:44;0.73;;;0.70;;
49514;SDS011;35415;47.870;16.058;2023-08-06T05:27:13;2.28;;;0.70;;
49514;SDS011;35415;47.870;16.058;2023-08-06T05:29:40;0.98;;;0.70;;
49514;SDS011;35415;47.870;16.058;2023-08-06T05:32:08;0.63;;;0.63;;
49514;SDS011;35415;47.870;16.058;2023-08-06T05:34:35;0.77;;;0.70;;
49514;SDS011;35415;47.870;16.058;2023-08-06T05:37:05;1.58;;;0.70;;
49514;SDS011;35415;47.870;16.058;2023-08-06T05:39:32;0.90;;;0.50;;
49514;SDS011;35415;47.870;16.058;2023-08-06T05:41:59;0.65;;;0.60;;
49514;SDS011;35415;47.870;16.058;2023-08-06T05:44:27;1.25;;;0.60;;
49514;SDS011;35415;47.870;16.058;2023-08-06T05:46:54;1.85;;;0.70;;
49514;SDS011;35415;47.870;16.058;2023-08-06T05:49:21;0.80;;;0.80;;
49514;SDS011;35415;47.870;16.058;2023-08-06T05:51:48;0.60;;;0.60;;
49514;SDS011;35415;47.870;16.058;2023-08-06T05:54:19;0.50;;;0.50;;
49514;SDS011;35415;47.870;16.058;2023-08-06T05:56:56;0.55;;;0.55;;
49514;SDS011;35415;47.870;16.058;2023-08-06T05:59:23;1.70;;;0.77;;
49514;SDS011;35415;47.870;16.058;2023-08-06T06:01:50;0.60;;;0.52;;
49514;SDS011;35415;47.870;16.058;2023-08-06T06:04:17;0.77;;;0.63;;
49514;SDS011;35415;47.870;16.058;2023-08-06T06:06:44;1.42;;;0.80;;
49514;SDS011;35415;47.870;16.058;2023-08-06T06:09:11;1.38;;;0.80;;
49514;SDS011;35415;47.870;16.058;2023-08-06T06:11:40;0.98;;;0.57;;
49514;SDS011;35415;47.870;16.058;2023-08-06T06:14:07;0.60;;;0.60;;
49514;SDS011;35415;47.870;16.058;2023-08-06T06:16:34;0.50;;;0.50;;
49514;SDS011;35415;47.870;16.058;2023-08-06T06:19:02;0.60;;;0.60;;
49514;SDS011;35415;47.870;16.058;2023-08-06T06:21:32;0.43;;;0.43;;
49514;SDS011;35415;47.870;16.058;2023-08-06T06:23:59;0.63;;;0.63;;
49514;SDS011;35415;47.870;16.058;2023-08-06T06:26:26;0.70;;;0.70;;
49514;SDS011;35415;47.870;16.058;2023-08-06T06:28:55;0.60;;;0.60;;
49514;SDS011;35415;47.870;16.058;2023-08-06T06:31:23;0.63;;;0.63;;
49514;SDS011;35415;47.870;16.058;2023-08-06T06:33:50;1.40;;;0.90;;
49514;SDS011;35415;47.870;16.058;2023-08-06T06:36:18;0.70;;;0.70;;
49514;SDS011;35415;47.870;16.058;2023-08-06T06:38:49;0.85;;;0.60;;
49514;SDS011;35415;47.870;16.058;2023-08-06T06:41:16;0.88;;;0.60;;
49514;SDS011;35415;47.870;16.058;2023-08-06T06:43:43;0.65;;;0.65;;
49514;SDS011;35415;47.870;16.058;2023-08-06T06:46:12;0.70;;;0.70;;
49514;SDS011;35415;47.870;16.058;2023-08-06T06:48:43;0.77;;;0.50;;
49514;SDS011;35415;47.870;16.058;2023-08-06T06:51:10;0.50;;;0.50;;
49514;SDS011;35415;47.870;16.058;2023-08-06T06:53:42;0.60;;;0.60;;
49514;SDS011;35415;47.870;16.058;2023-08-06T06:56:11;0.60;;;0.60;;
49514;SDS011;35415;47.870;16.058;2023-08-06T06:58:38;0.60;;;0.60;;
49514;SDS011;35415;47.870;16.058;2023-08-06T07:01:06;0.57;;;0.57;;
49514;SDS011;35415;47.870;16.058;2023-08-06T07:03:36;0.68;;;0.68;;
49514;SDS011;35415;47.870;16.058;2023-08-06T07:06:05;0.55;;;0.55;;
49514;SDS011;35415;47.870;16.058;2023-08-06T07:08:33;0.70;;;0.70;;
49514;SDS011;35415;47.870;16.058;2023-08-06T07:11:01;0.77;;;0.77;;
49514;SDS011;35415;47.870;16.058;2023-08-06T07:13:29;0.60;;;0.60;;
49514;SDS011;35415;47.870;16.058;2023-08-06T07:16:00;0.50;;;0.50;;
49514;SDS011;35415;47.870;16.058;2023-08-06T07:18:28;0.68;;;0.68;;
49514;SDS011;35415;47.870;16.058;2023-08-06T07:20:59;0.60;;;0.60;;
49514;SDS011;35415;47.870;16.058;2023-08-06T07:23:30;1.02;;;0.90;;
49514;SDS011;35415;47.870;16.058;2023-08-06T07:26:00;0.70;;;0.70;;
49514;SDS011;35415;47.870;16.058;2023-08-06T07:28:31;0.70;;;0.70;;
49514;SDS011;35415;47.870;16.058;2023-08-06T07:30:58;0.85;;;0.80;;
49514;SDS011;35415;47.870;16.058;2023-08-06T07:33:26;0.60;;;0.60;;
49514;SDS011;35415;47.870;16.058;2023-08-06T07:35:53;0.60;;;0.60;;
49514;SDS011;35415;47.870;16.058;2023-08-06T07:38:23;0.73;;;0.73;;
49514;SDS011;35415;47.870;16.058;2023-08-06T07:43:41;0.95;;;0.93;;
49514;SDS011;35415;47.870;16.058;2023-08-06T07:46:18;1.35;;;1.02;;
49514;SDS011;35415;47.870;16.058;2023-08-06T07:48:49;1.80;;;1.38;;
49514;SDS011;35415;47.870;16.058;2023-08-06T07:51:17;2.22;;;1.70;;
49514;SDS011;35415;47.870;16.058;2023-08-06T07:54:10;0.73;;;0.73;;
49514;SDS011;35415;47.870;16.058;2023-08-06T07:56:38;1.30;;;1.20;;
49514;SDS011;35415;47.870;16.058;2023-08-06T07:59:05;1.88;;;1.30;;
49514;SDS011;35415;47.870;16.058;2023-08-06T08:01:32;1.00;;;0.90;;
49514;SDS011;35415;47.870;16.058;2023-08-06T08:04:00;1.85;;;0.98;;
49514;SDS011;35415;47.870;16.058;2023-08-06T08:06:27;0.68;;;0.68;;
49514;SDS011;35415;47.870;16.058;2023-08-06T08:08:54;1.10;;;1.00;;
49514;SDS011;35415;47.870;16.058;2023-08-06T08:11:26;2.45;;;1.08;;
49514;SDS011;35415;47.870;16.058;2023-08-06T08:13:56;1.00;;;0.90;;
49514;SDS011;35415;47.870;16.058;2023-08-06T08:16:23;1.13;;;0.93;;
49514;SDS011;35415;47.870;16.058;2023-08-06T08:18:54;1.20;;;0.90;;
49514;SDS011;35415;47.870;16.058;2023-08-06T08:21:23;0.93;;;0.93;;
49514;SDS011;35415;47.870;16.058;2023-08-06T08:23:50;0.80;;;0.80;;
49514;SDS011;35415;47.870;16.058;2023-08-06T08:26:17;2.65;;;0.90;;
49514;SDS011;35415;47.870;16.058;2023-08-06T08:28:53;0.82;;;0.80;;
49514;SDS011;35415;47.870;16.058;2023-08-06T08:31:23;0.85;;;0.85;;
49514;SDS011;35415;47.870;16.058;2023-08-06T08:33:51;0.98;;;0.82;;
49514;SDS011;35415;47.870;16.058;2023-08-06T08:39:21;2.25;;;0.98;;
49514;SDS011;35415;47.870;16.058;2023-08-06T08:44:52;1.10;;;1.00;;
49514;SDS011;35415;47.870;16.058;2023-08-06T08:47:21;1.35;;;1.25;;
49514;SDS011;35415;47.870;16.058;2023-08-06T08:49:52;1.02;;;1.02;;
49514;SDS011;35415;47.870;16.058;2023-08-06T08:52:23;1.33;;;1.00;;
49514;SDS011;35415;47.870;16.058;2023-08-06T08:55:00;1.15;;;1.05;;
49514;SDS011;35415;47.870;16.058;2023-08-06T08:57:29;0.90;;;0.90;;
49514;SDS011;35415;47.870;16.058;2023-08-06T08:59:58;1.27;;;0.93;;
49514;SDS011;35415;47.870;16.058;2023-08-06T09:02:29;0.80;;;0.80;;
49514;SDS011;35415;47.870;16.058;2023-08-06T09:11:01;1.17;;;1.08;;
49514;SDS011;35415;47.870;16.058;2023-08-06T09:16:36;1.23;;;1.00;;
49514;SDS011;35415;47.870;16.058;2023-08-06T09:31:00;1.20;;;1.10;;
49514;SDS011;35415;47.870;16.058;2023-08-06T09:33:29;1.50;;;0.90;;
49514;SDS011;35415;47.870;16.058;2023-08-06T09:36:07;1.20;;;1.10;;
49514;SDS011;35415;47.870;16.058;2023-08-06T09:49:52;1.45;;;0.90;;
49514;SDS011;35415;47.870;16.058;2023-08-06T10:40:06;0.82;;;0.82;;
49514;SDS011;35415;47.870;16.058;2023-08-06T10:42:55;1.10;;;0.98;;
49514;SDS011;35415;47.870;16.058;2023-08-06T10:57:34;1.10;;;1.00;;
49514;SDS011;35415;47.870;16.058;2023-08-06T11:00:08;0.82;;;0.75;;
49514;SDS011;35415;47.870;16.058;2023-08-06T11:02:39;1.03;;;0.93;;
49514;SDS011;35415;47.870;16.058;2023-08-06T11:05:07;0.90;;;0.90;;
49514;SDS011;35415;47.870;16.058;2023-08-06T12:52:38;1.45;;;1.20;;
49514;SDS011;35415;47.870;16.058;2023-08-06T12:55:05;1.20;;;1.10;;
49514;SDS011;35415;47.870;16.058;2023-08-06T12:57:35;1.60;;;1.00;;
49514;SDS011;35415;47.870;16.058;2023-08-06T13:00:05;0.73;;;0.70;;
49514;SDS011;35415;47.870;16.058;2023-08-06T13:02:34;1.17;;;0.80;;
49514;SDS011;35415;47.870;16.058;2023-08-06T13:05:02;0.75;;;0.63;;
49514;SDS011;35415;47.870;16.058;2023-08-06T13:07:44;1.48;;;0.88;;
49514;SDS011;35415;47.870;16.058;2023-08-06T13:10:18;0.90;;;0.70;;
49514;SDS011;35415;47.870;16.058;2023-08-06T13:12:46;1.00;;;0.80;;
49514;SDS011;35415;47.870;16.058;2023-08-06T13:15:13;2.22;;;0.75;;
49514;SDS011;35415;47.870;16.058;2023-08-06T13:17:42;0.80;;;0.70;;
49514;SDS011;35415;47.870;16.058;2023-08-06T13:20:09;0.60;;;0.60;;
49514;SDS011;35415;47.870;16.058;2023-08-06T13:22:36;0.93;;;0.55;;
49514;SDS011;35415;47.870;16.058;2023-08-06T13:25:05;0.55;;;0.50;;
49514;SDS011;35415;47.870;16.058;2023-08-06T13:27:32;0.50;;;0.50;;
49514;SDS011;35415;47.870;16.058;2023-08-06T13:29:59;0.65;;;0.65;;
49514;SDS011;35415;47.870;16.058;2023-08-06T13:32:27;0.70;;;0.68;;
49514;SDS011;35415;47.870;16.058;2023-08-06T13:34:58;0.65;;;0.60;;
49514;SDS011;35415;47.870;16.058;2023-08-06T13:37:25;0.57;;;0.50;;
49514;SDS011;35415;47.870;16.058;2023-08-06T13:39:52;1.17;;;0.80;;
49514;SDS011;35415;47.870;16.058;2023-08-06T13:42:21;1.15;;;0.70;;
49514;SDS011;35415;47.870;16.058;2023-08-06T13:44:52;0.60;;;0.50;;
49514;SDS011;35415;47.870;16.058;2023-08-06T13:47:25;0.65;;;0.50;;
49514;SDS011;35415;47.870;16.058;2023-08-06T13:49:52;2.08;;;0.77;;
49514;SDS011;35415;47.870;16.058;2023-08-06T13:52:20;1.83;;;0.60;;
49514;SDS011;35415;47.870;16.058;2023-08-06T13:54:47;1.13;;;0.75;;
49514;SDS011;35415;47.870;16.058;2023-08-06T13:57:16;0.88;;;0.60;;
49514;SDS011;35415;47.870;16.058;2023-08-06T13:59:45;0.73;;;0.50;;
49514;SDS011;35415;47.870;16.058;2023-08-06T14:02:12;0.95;;;0.60;;
49514;SDS011;35415;47.870;16.058;2023-08-06T14:04:39;1.23;;;0.60;;
49514;SDS011;35415;47.870;16.058;2023-08-06T14:07:06;1.17;;;0.68;;
49514;SDS011;35415;47.870;16.058;2023-08-06T14:09:33;0.60;;;0.60;;
49514;SDS011;35415;47.870;16.058;2023-08-06T14:12:03;0.70;;;0.70;;
49514;SDS011;35415;47.870;16.058;2023-08-06T14:14:30;1.70;;;0.70;;
49514;SDS011;35415;47.870;16.058;2023-08-06T14:16:59;0.60;;;0.60;;
49514;SDS011;35415;47.870;16.058;2023-08-06T14:19:26;1.83;;;0.90;;
49514;SDS011;35415;47.870;16.058;2023-08-06T14:21:54;1.23;;;0.60;;
49514;SDS011;35415;47.870;16.058;2023-08-06T14:24:22;0.40;;;0.40;;
49514;SDS011;35415;47.870;16.058;2023-08-06T14:26:51;0.57;;;0.50;;
49514;SDS011;35415;47.870;16.058;2023-08-06T14:29:18;1.02;;;0.60;;
49514;SDS011;35415;47.870;16.058;2023-08-06T14:31:45;0.60;;;0.60;;
49514;SDS011;35415;47.870;16.058;2023-08-06T14:34:14;0.50;;;0.50;;
49514;SDS011;35415;47.870;16.058;2023-08-06T14:36:41;0.80;;;0.60;;
49514;SDS011;35415;47.870;16.058;2023-08-06T14:39:11;1.48;;;0.52;;
49514;SDS011;35415;47.870;16.058;2023-08-06T14:41:38;0.65;;;0.40;;
49514;SDS011;35415;47.870;16.058;2023-08-06T14:44:05;0.30;;;0.30;;
49514;SDS011;35415;47.870;16.058;2023-08-06T14:46:35;0.28;;;0.28;;
49514;SDS011;35415;47.870;16.058;2023-08-06T14:49:04;0.40;;;0.40;;
49514;SDS011;35415;47.870;16.058;2023-08-06T14:51:32;0.63;;;0.43;;
49514;SDS011;35415;47.870;16.058;2023-08-06T14:53:59;0.55;;;0.35;;
49514;SDS011;35415;47.870;16.058;2023-08-06T14:56:26;0.80;;;0.73;;
49514;SDS011;35415;47.870;16.058;2023-08-06T14:58:53;0.50;;;0.50;;
49514;SDS011;35415;47.870;16.058;2023-08-06T15:01:20;0.60;;;0.30;;
49514;SDS011;35415;47.870;16.058;2023-08-06T15:03:47;0.60;;;0.32;;
49514;SDS011;35415;47.870;16.058;2023-08-06T15:06:16;0.57;;;0.40;;
49514;SDS011;35415;47.870;16.058;2023-08-06T15:08:45;0.82;;;0.60;;
49514;SDS011;35415;47.870;16.058;2023-08-06T15:11:13;0.25;;;0.25;;
49514;SDS011;35415;47.870;16.058;2023-08-06T15:13:40;0.30;;;0.30;;
49514;SDS011;35415;47.870;16.058;2023-08-06T15:16:08;0.38;;;0.38;;
49514;SDS011;35415;47.870;16.058;2023-08-06T15:18:35;0.38;;;0.32;;
49514;SDS011;35415;47.870;16.058;2023-08-06T15:21:02;0.30;;;0.30;;
49514;SDS011;35415;47.870;16.058;2023-08-06T15:23:29;0.20;;;0.20;;
49514;SDS011;35415;47.870;16.058;2023-08-06T15:25:57;0.30;;;0.30;;
49514;SDS011;35415;47.870;16.058;2023-08-06T15:28:24;0.30;;;0.30;;
49514;SDS011;35415;47.870;16.058;2023-08-06T15:30:54;0.28;;;0.28;;
49514;SDS011;35415;47.870;16.058;2023-08-06T15:33:22;0.60;;;0.22;;
49514;SDS011;35415;47.870;16.058;2023-08-06T15:35:49;0.25;;;0.25;;
49514;SDS011;35415;47.870;16.058;2023-08-06T15:38:23;0.15;;;0.15;;
49514;SDS011;35415;47.870;16.058;2023-08-06T15:40:50;0.30;;;0.30;;
49514;SDS011;35415;47.870;16.058;2023-08-06T15:43:18;0.30;;;0.30;;
49514;SDS011;35415;47.870;16.058;2023-08-06T15:45:45;1.02;;;0.30;;
49514;SDS011;35415;47.870;16.058;2023-08-06T15:48:12;0.30;;;0.30;;
49514;SDS011;35415;47.870;16.058;2023-08-06T15:50:42;0.20;;;0.20;;
49514;SDS011;35415;47.870;16.058;2023-08-06T15:53:09;0.45;;;0.20;;
49514;SDS011;35415;47.870;16.058;2023-08-06T15:55:37;0.40;;;0.40;;
49514;SDS011;35415;47.870;16.058;2023-08-06T15:58:08;0.35;;;0.30;;
49514;SDS011;35415;47.870;16.058;2023-08-06T16:00:36;0.40;;;0.40;;
49514;SDS011;35415;47.870;16.058;2023-08-06T16:03:07;0.40;;;0.40;;
49514;SDS011;35415;47.870;16.058;2023-08-06T16:05:34;0.52;;;0.30;;
49514;SDS011;35415;47.870;16.058;2023-08-06T16:08:02;0.30;;;0.30;;
49514;SDS011;35415;47.870;16.058;2023-08-06T16:10:29;0.32;;;0.30;;
49514;SDS011;35415;47.870;16.058;2023-08-06T16:12:56;0.52;;;0.30;;
49514;SDS011;35415;47.870;16.058;2023-08-06T16:15:23;0.43;;;0.20;;
49514;SDS011;35415;47.870;16.058;2023-08-06T16:17:52;0.30;;;0.30;;
49514;SDS011;35415;47.870;16.058;2023-08-06T16:20:19;0.22;;;0.22;;
49514;SDS011;35415;47.870;16.058;2023-08-06T16:22:47;0.20;;;0.20;;
49514;SDS011;35415;47.870;16.058;2023-08-06T16:25:14;0.52;;;0.30;;
49514;SDS011;35415;47.870;16.058;2023-08-06T16:27:42;0.10;;;0.10;;
49514;SDS011;35415;47.870;16.058;2023-08-06T16:30:09;0.70;;;0.20;;
49514;SDS011;35415;47.870;16.058;2023-08-06T16:32:37;0.20;;;0.20;;
49514;SDS011;35415;47.870;16.058;2023-08-06T16:35:07;0.43;;;0.20;;
49514;SDS011;35415;47.870;16.058;2023-08-06T16:37:35;0.20;;;0.20;;
49514;SDS011;35415;47.870;16.058;2023-08-06T16:40:04;0.43;;;0.32;;
49514;SDS011;35415;47.870;16.058;2023-08-06T16:42:34;0.20;;;0.20;;
49514;SDS011;35415;47.870;16.058;2023-08-06T16:45:01;0.28;;;0.28;;
49514;SDS011;35415;47.870;16.058;2023-08-06T16:47:29;0.20;;;0.20;;
49514;SDS011;35415;47.870;16.058;2023-08-06T16:49:56;0.20;;;0.20;;
49514;SDS011;35415;47.870;16.058;2023-08-06T16:52:25;0.20;;;0.20;;
49514;SDS011;35415;47.870;16.058;2023-08-06T16:54:52;0.28;;;0.20;;
49514;SDS011;35415;47.870;16.058;2023-08-06T16:57:19;1.13;;;0.30;;
49514;SDS011;35415;47.870;16.058;2023-08-06T16:59:46;0.20;;;0.20;;
49514;SDS011;35415;47.870;16.058;2023-08-06T17:02:13;0.20;;;0.20;;
49514;SDS011;35415;47.870;16.058;2023-08-06T17:04:40;0.20;;;0.20;;
49514;SDS011;35415;47.870;16.058;2023-08-06T17:07:09;0.30;;;0.30;;
49514;SDS011;35415;47.870;16.058;2023-08-06T17:09:38;0.30;;;0.30;;
49514;SDS011;35415;47.870;16.058;2023-08-06T17:12:06;0.20;;;0.20;;
49514;SDS011;35415;47.870;16.058;2023-08-06T17:14:34;1.00;;;0.40;;
49514;SDS011;35415;47.870;16.058;2023-08-06T17:17:01;0.22;;;0.20;;
49514;SDS011;35415;47.870;16.058;2023-08-06T17:19:28;2.15;;;0.75;;
49514;SDS011;35415;47.870;16.058;2023-08-06T17:21:55;0.30;;;0.30;;
49514;SDS011;35415;47.870;16.058;2023-08-06T17:24:22;2.35;;;0.30;;
49514;SDS011;35415;47.870;16.058;2023-08-06T17:26:51;0.57;;;0.20;;
49514;SDS011;35415;47.870;16.058;2023-08-06T17:29:23;0.13;;;0.13;;
49514;SDS011;35415;47.870;16.058;2023-08-06T17:31:51;0.20;;;0.20;;
49514;SDS011;35415;47.870;16.058;2023-08-06T17:34:20;0.52;;;0.30;;
49514;SDS011;35415;47.870;16.058;2023-08-06T17:36:48;0.20;;;0.20;;
49514;SDS011;35415;47.870;16.058;2023-08-06T17:39:15;0.82;;;0.30;;
49514;SDS011;35415;47.870;16.058;2023-08-06T17:41:42;0.20;;;0.20;;
49514;SDS011;35415;47.870;16.058;2023-08-06T17:44:11;2.83;;;0.40;;
49514;SDS011;35415;47.870;16.058;2023-08-06T17:46:38;0.85;;;0.20;;
49514;SDS011;35415;47.870;16.058;2023-08-06T17:49:05;0.20;;;0.20;;
49514;SDS011;35415;47.870;16.058;2023-08-06T17:51:32;0.38;;;0.13;;
49514;SDS011;35415;47.870;16.058;2023-08-06T17:53:59;3.25;;;1.55;;
49514;SDS011;35415;47.870;16.058;2023-08-06T17:56:26;0.20;;;0.20;;
49514;SDS011;35415;47.870;16.058;2023-08-06T17:58:53;0.20;;;0.20;;
49514;SDS011;35415;47.870;16.058;2023-08-06T18:01:22;0.22;;;0.22;;
49514;SDS011;35415;47.870;16.058;2023-08-06T18:03:49;0.20;;;0.20;;
49514;SDS011;35415;47.870;16.058;2023-08-06T18:06:16;0.50;;;0.50;;